Time;durP1;ratioP1;P1;durP2;ratioP2;P2;SDS_P1;SDS_P2;PMS_P1;PMS_P2;Temp;Humidity;BMP_temperature;BMP_pressure;BME280_temperature;BME280_humidity;BME280_pressure;Samples;Min_cycle;Max_cycle;Signal;HPM_P1;HPM_P2
2022/03/08 00:02:24;;;;;;;25.85;17.45;;;1.60;84.10;;;;;;5014848;28;20204;-90
2022/03/08 00:04:53;;;;;;;28.20;17.35;;;1.60;84.60;;;;;;5011163;28;20269;-89
2022/03/08 00:07:20;;;;;;;23.00;16.23;;;1.50;84.40;;;;;;5001049;28;20254;-90
2022/03/08 00:09:49;;;;;;;24.42;16.70;;;1.60;84.90;;;;;;5008670;28;20223;-90
2022/03/08 00:12:16;;;;;;;25.33;15.30;;;1.50;84.80;;;;;;5005235;28;20220;-89
2022/03/08 00:14:46;;;;;;;25.77;17.30;;;1.40;85.00;;;;;;5008403;28;20213;-90
2022/03/08 00:17:14;;;;;;;27.92;17.65;;;1.40;86.30;;;;;;5006364;28;20236;-90
2022/03/08 00:19:41;;;;;;;26.80;17.77;;;1.40;85.70;;;;;;5005621;28;20206;-90
2022/03/08 00:22:10;;;;;;;25.35;18.48;;;1.60;86.00;;;;;;5010609;28;20221;-88
2022/03/08 00:24:37;;;;;;;26.15;16.20;;;1.50;85.80;;;;;;5011913;28;20201;-89
2022/03/08 00:27:05;;;;;;;25.35;18.25;;;1.30;85.50;;;;;;5004614;28;20341;-89
2022/03/08 00:29:32;;;;;;;27.20;17.73;;;1.40;85.30;;;;;;5000831;28;20639;-89
2022/03/08 00:32:06;;;;;;;29.05;18.77;;;1.40;85.70;;;;;;4998240;28;20228;-89
2022/03/08 00:34:34;;;;;;;26.33;17.75;;;1.50;86.30;;;;;;4999708;28;20302;-89
2022/03/08 00:37:07;;;;;;;25.90;16.90;;;1.30;86.20;;;;;;5000809;28;20662;-90
2022/03/08 00:39:36;;;;;;;27.65;17.67;;;1.30;86.30;;;;;;5000037;28;20196;-89
2022/03/08 00:42:04;;;;;;;27.95;17.17;;;1.20;86.70;;;;;;5001249;28;20231;-91
2022/03/08 00:44:31;;;;;;;23.65;16.55;;;1.20;87.60;;;;;;5000523;28;20215;-91
2022/03/08 00:46:58;;;;;;;24.35;17.33;;;1.10;87.90;;;;;;5002448;28;20224;-91
2022/03/08 00:49:25;;;;;;;27.38;18.42;;;1.20;88.50;;;;;;5020609;28;20190;-89
2022/03/08 00:51:54;;;;;;;27.98;17.00;;;1.20;88.50;;;;;;5014962;28;20232;-90
2022/03/08 00:54:21;;;;;;;26.73;17.05;;;1.10;88.90;;;;;;5004318;28;20213;-89
2022/03/08 00:56:50;;;;;;;25.98;16.63;;;1.20;88.50;;;;;;5001173;28;20223;-89
2022/03/08 00:59:20;;;;;;;25.00;16.58;;;1.20;88.30;;;;;;5001274;28;20307;-89
2022/03/08 01:01:47;;;;;;;23.23;15.95;;;1.40;88.20;;;;;;5002056;28;20299;-89
2022/03/08 01:04:14;;;;;;;29.02;17.80;;;1.20;88.30;;;;;;5012630;28;20263;-90
2022/03/08 01:06:42;;;;;;;24.45;16.73;;;1.20;88.90;;;;;;5003492;28;20311;-91
2022/03/08 01:09:10;;;;;;;29.67;18.05;;;1.10;89.10;;;;;;4999664;28;20208;-90
2022/03/08 01:11:39;;;;;;;31.00;17.63;;;1.20;89.90;;;;;;5000292;28;20248;-90
2022/03/08 01:14:08;;;;;;;31.98;18.50;;;1.10;90.10;;;;;;5005518;28;20215;-90
2022/03/08 01:16:36;;;;;;;29.50;17.42;;;1.10;90.20;;;;;;5004930;28;20669;-90
2022/03/08 01:19:05;;;;;;;26.40;16.40;;;1.30;90.20;;;;;;5004836;28;20239;-90
2022/03/08 01:21:32;;;;;;;31.80;17.08;;;1.00;90.00;;;;;;5001387;28;20699;-89
2022/03/08 01:24:00;;;;;;;25.70;15.95;;;1.20;89.90;;;;;;5014667;28;20289;-90
2022/03/08 01:26:27;;;;;;;23.13;16.25;;;1.10;89.90;;;;;;5000525;28;20279;-90
2022/03/08 01:28:55;;;;;;;28.52;16.45;;;0.90;90.30;;;;;;4999503;28;20586;-89
2022/03/08 01:31:28;;;;;;;25.90;17.20;;;1.00;90.40;;;;;;5015991;28;20235;-88
2022/03/08 01:33:58;;;;;;;24.10;16.42;;;1.00;90.50;;;;;;5015578;28;20216;-87
2022/03/08 01:36:26;;;;;;;27.38;18.10;;;1.20;90.60;;;;;;5016288;28;20208;-88
2022/03/08 01:38:53;;;;;;;23.13;16.20;;;1.10;90.60;;;;;;5017413;28;20264;-88
2022/03/08 01:41:21;;;;;;;30.40;18.05;;;1.00;90.60;;;;;;5020381;28;20208;-87
2022/03/08 01:43:48;;;;;;;23.15;15.45;;;0.90;91.00;;;;;;5021139;28;20181;-88
2022/03/08 01:46:19;;;;;;;22.25;15.70;;;0.70;90.70;;;;;;5020251;28;20184;-88
2022/03/08 01:48:47;;;;;;;23.02;15.80;;;0.80;90.40;;;;;;5017939;28;20208;-88
2022/03/08 01:51:16;;;;;;;21.80;14.65;;;1.10;90.40;;;;;;5018103;28;20246;-88
2022/03/08 01:53:44;;;;;;;24.90;16.00;;;0.90;90.30;;;;;;5017737;28;20236;-88
2022/03/08 01:56:12;;;;;;;28.20;15.98;;;0.90;90.40;;;;;;5016617;28;20214;-88
2022/03/08 01:58:39;;;;;;;24.92;14.95;;;0.90;90.60;;;;;;5015728;28;20205;-88
2022/03/08 02:01:08;;;;;;;23.73;15.63;;;1.00;90.70;;;;;;5020498;28;20208;-88
2022/03/08 02:03:35;;;;;;;24.00;15.63;;;0.90;90.80;;;;;;5017733;28;20265;-88
2022/03/08 02:06:04;;;;;;;24.75;16.27;;;0.90;91.00;;;;;;5015884;28;20235;-88
2022/03/08 02:08:32;;;;;;;26.73;15.60;;;0.80;91.20;;;;;;5019509;28;20217;-88
2022/03/08 02:10:59;;;;;;;25.98;18.40;;;0.70;91.20;;;;;;5012820;28;20233;-88
2022/03/08 02:13:27;;;;;;;25.20;16.55;;;0.80;91.60;;;;;;5009535;28;20207;-88
2022/03/08 02:15:56;;;;;;;24.35;15.85;;;0.60;91.70;;;;;;5010086;28;20224;-87
2022/03/08 02:18:23;;;;;;;23.42;15.07;;;0.70;91.80;;;;;;5009484;28;20200;-87
2022/03/08 02:20:50;;;;;;;27.15;16.05;;;0.70;92.40;;;;;;5017940;28;20280;-88
2022/03/08 02:23:21;;;;;;;26.52;17.15;;;0.50;92.50;;;;;;5016703;28;20609;-88
2022/03/08 02:25:48;;;;;;;23.58;15.07;;;0.50;92.50;;;;;;5014140;28;20174;-88
2022/03/08 02:28:16;;;;;;;23.25;15.60;;;0.40;92.40;;;;;;5015234;28;20291;-88
2022/03/08 02:30:45;;;;;;;23.15;15.57;;;0.50;92.60;;;;;;5014823;28;20274;-88
2022/03/08 02:33:12;;;;;;;22.38;15.43;;;0.50;92.60;;;;;;5015122;28;20291;-88
2022/03/08 02:35:39;;;;;;;24.23;15.45;;;0.60;92.70;;;;;;5012821;28;20230;-88
2022/03/08 02:38:07;;;;;;;26.92;16.05;;;0.40;92.80;;;;;;5015111;28;20208;-88
2022/03/08 02:40:38;;;;;;;23.77;15.98;;;0.50;93.10;;;;;;5016499;28;20343;-87
2022/03/08 02:43:07;;;;;;;23.65;15.57;;;0.30;93.00;;;;;;5017651;28;20208;-87
2022/03/08 02:45:38;;;;;;;27.35;15.05;;;0.20;93.10;;;;;;5016376;28;20223;-87
2022/03/08 02:48:07;;;;;;;22.42;14.18;;;0.40;93.40;;;;;;5016768;28;20227;-88
2022/03/08 02:50:34;;;;;;;24.80;15.88;;;0.40;93.50;;;;;;5011097;28;20236;-88
2022/03/08 02:53:01;;;;;;;25.00;13.68;;;0.40;93.20;;;;;;5016110;28;20205;-87
2022/03/08 02:55:31;;;;;;;23.98;15.68;;;0.20;92.90;;;;;;5018432;28;20216;-88
2022/03/08 02:58:00;;;;;;;27.27;15.65;;;0.50;92.90;;;;;;5019630;28;20204;-87
2022/03/08 03:00:28;;;;;;;22.88;14.07;;;0.50;92.80;;;;;;5018662;28;20228;-88
2022/03/08 03:02:56;;;;;;;20.52;13.30;;;0.30;92.90;;;;;;5019088;28;20203;-87
2022/03/08 03:05:23;;;;;;;25.38;15.23;;;0.40;93.20;;;;;;5019666;28;20185;-87
2022/03/08 03:07:51;;;;;;;25.45;15.48;;;0.30;93.40;;;;;;5017184;28;20250;-88
2022/03/08 03:10:19;;;;;;;23.17;15.98;;;0.40;93.80;;;;;;5008018;28;20232;-88
2022/03/08 03:12:47;;;;;;;24.17;15.27;;;0.30;93.40;;;;;;5013565;28;20188;-87
2022/03/08 03:15:17;;;;;;;25.23;15.10;;;0.30;93.70;;;;;;5013574;28;20214;-87
2022/03/08 03:17:47;;;;;;;22.65;14.40;;;0.30;93.70;;;;;;5010674;28;20236;-87
2022/03/08 03:20:16;;;;;;;26.33;15.50;;;0.60;93.80;;;;;;5005851;28;20239;-88
2022/03/08 03:22:44;;;;;;;21.83;14.50;;;0.30;93.70;;;;;;5004851;28;20262;-88
2022/03/08 03:25:12;;;;;;;24.92;16.30;;;0.30;94.00;;;;;;5004773;28;20201;-87
2022/03/08 03:27:39;;;;;;;19.80;14.02;;;0.20;94.20;;;;;;5003791;28;20290;-88
2022/03/08 03:32:51;;;;;;;22.38;14.25;;;0.00;95.30;;;;;;5024029;28;20230;-89
2022/03/08 03:35:18;;;;;;;26.50;15.85;;;0.10;95.20;;;;;;5016295;28;20211;-90
2022/03/08 03:37:46;;;;;;;20.60;13.30;;;0.10;95.00;;;;;;5019306;28;20191;-89
2022/03/08 03:40:15;;;;;;;21.63;13.93;;;0.00;94.90;;;;;;5023911;28;20199;-89
2022/03/08 03:42:42;;;;;;;25.45;15.15;;;0.20;95.20;;;;;;5016783;28;20196;-90
2022/03/08 03:45:10;;;;;;;26.63;15.45;;;0.30;95.20;;;;;;5004051;28;20234;-90
2022/03/08 03:47:37;;;;;;;24.00;15.25;;;0.00;94.90;;;;;;5006690;28;20216;-91
2022/03/08 03:50:07;;;;;;;22.70;13.77;;;0.10;94.90;;;;;;5016346;28;20180;-90
2022/03/08 03:52:34;;;;;;;27.02;15.45;;;-0.10;95.00;;;;;;5008461;28;20252;-90
2022/03/08 03:55:03;;;;;;;24.00;14.50;;;0.00;94.90;;;;;;5014602;28;20192;-90
2022/03/08 03:57:29;;;;;;;25.02;15.82;;;-0.10;95.10;;;;;;5016812;28;20231;-89
2022/03/08 03:59:56;;;;;;;26.05;15.07;;;-0.20;95.70;;;;;;5012593;28;20219;-89
2022/03/08 04:02:23;;;;;;;24.45;14.60;;;-0.20;96.10;;;;;;5006248;28;20243;-90
2022/03/08 04:04:50;;;;;;;24.45;15.35;;;-0.30;95.90;;;;;;4998223;28;20218;-90
2022/03/08 04:07:18;;;;;;;23.65;15.02;;;-0.20;95.60;;;;;;5002451;28;20228;-90
2022/03/08 04:09:45;;;;;;;24.70;14.20;;;-0.20;95.50;;;;;;4997838;28;20271;-91
2022/03/08 04:12:12;;;;;;;25.98;15.18;;;-0.10;95.60;;;;;;4996650;28;20300;-90
2022/03/08 04:14:39;;;;;;;24.00;14.15;;;0.00;95.80;;;;;;4996215;28;20243;-90
2022/03/08 04:17:06;;;;;;;27.75;16.88;;;-0.10;95.90;;;;;;4999072;28;20713;-91
2022/03/08 04:19:33;;;;;;;23.05;14.27;;;-0.20;96.10;;;;;;5008513;28;20258;-90
2022/03/08 04:22:00;;;;;;;24.25;14.52;;;-0.10;96.30;;;;;;5004886;28;20259;-90
2022/03/08 04:24:28;;;;;;;26.80;14.73;;;-0.10;96.30;;;;;;4997674;28;20311;-90
2022/03/08 04:26:55;;;;;;;23.27;12.80;;;-0.20;96.30;;;;;;4996429;28;20233;-90
2022/03/08 04:29:22;;;;;;;21.52;13.40;;;-0.30;96.50;;;;;;5006857;28;20260;-91
2022/03/08 04:31:50;;;;;;;21.50;14.00;;;0.00;96.70;;;;;;5003305;28;20657;-91
2022/03/08 04:34:17;;;;;;;22.10;14.80;;;-0.20;96.60;;;;;;4996327;28;20212;-91
2022/03/08 04:36:44;;;;;;;28.98;15.32;;;-0.20;96.70;;;;;;4996159;28;20291;-91
2022/03/08 04:39:11;;;;;;;22.23;14.10;;;-0.10;97.00;;;;;;4995962;28;20351;-91
2022/03/08 04:41:40;;;;;;;21.13;14.50;;;-0.10;97.50;;;;;;5008670;28;20232;-90
2022/03/08 04:44:07;;;;;;;25.50;13.68;;;-0.20;97.80;;;;;;5010446;28;20213;-90
2022/03/08 04:46:35;;;;;;;27.63;15.27;;;-0.10;98.10;;;;;;5002268;28;20234;-90
2022/03/08 04:49:02;;;;;;;25.05;15.50;;;-0.40;98.20;;;;;;5001975;28;20219;-90
2022/03/08 04:51:28;;;;;;;25.77;16.23;;;-0.30;98.30;;;;;;5003713;28;20232;-90
2022/03/08 04:53:55;;;;;;;24.48;14.43;;;-0.30;98.40;;;;;;5012914;28;20209;-90
2022/03/08 04:56:22;;;;;;;23.50;14.35;;;-0.20;98.70;;;;;;5013596;28;20261;-91
2022/03/08 04:58:52;;;;;;;29.95;14.82;;;-0.10;98.90;;;;;;5005748;28;20234;-90
2022/03/08 05:01:19;;;;;;;28.58;15.73;;;-0.20;98.80;;;;;;4997736;28;20281;-90
2022/03/08 05:03:46;;;;;;;23.85;14.07;;;-0.20;98.80;;;;;;4996871;28;20272;-90
2022/03/08 05:06:13;;;;;;;22.00;14.25;;;-0.20;98.70;;;;;;5002562;28;20303;-90
2022/03/08 05:08:40;;;;;;;22.35;13.60;;;-0.20;98.20;;;;;;4999496;28;20258;-90
2022/03/08 05:11:07;;;;;;;23.15;14.63;;;-0.30;98.00;;;;;;4996712;28;20546;-90
2022/03/08 05:13:34;;;;;;;22.23;14.27;;;-0.40;97.90;;;;;;4997407;28;20222;-91
2022/03/08 05:16:02;;;;;;;24.85;15.15;;;-0.50;97.80;;;;;;4997266;28;20219;-91
2022/03/08 05:18:29;;;;;;;24.70;14.80;;;-0.20;98.00;;;;;;5003737;28;20272;-91
2022/03/08 05:20:57;;;;;;;23.65;13.32;;;-0.20;98.20;;;;;;5016138;28;20212;-92
2022/03/08 05:23:24;;;;;;;24.95;14.05;;;-0.10;98.10;;;;;;4999952;28;20303;-91
2022/03/08 05:25:51;;;;;;;21.02;12.98;;;-0.20;97.60;;;;;;4996178;28;20220;-90
2022/03/08 05:28:19;;;;;;;21.48;13.63;;;-0.40;97.70;;;;;;4999685;28;20227;-91
2022/03/08 05:30:56;;;;;;;24.50;14.65;;;-0.20;97.80;;;;;;5006221;28;20235;-91
2022/03/08 05:33:25;;;;;;;27.55;15.38;;;-0.40;98.10;;;;;;5009519;28;20172;-91
2022/03/08 05:35:52;;;;;;;22.60;14.40;;;-0.20;98.30;;;;;;5011021;28;20210;-89
2022/03/08 05:38:19;;;;;;;25.25;14.80;;;-0.50;98.60;;;;;;5007480;28;20263;-90
2022/03/08 05:40:46;;;;;;;27.65;16.05;;;-0.50;99.10;;;;;;5009226;28;20295;-90
2022/03/08 05:43:14;;;;;;;23.25;14.18;;;-0.40;99.30;;;;;;5007647;28;20204;-89
2022/03/08 05:45:41;;;;;;;23.23;13.55;;;-0.20;99.30;;;;;;5007601;28;20212;-90
2022/03/08 05:48:08;;;;;;;25.40;15.20;;;-0.30;99.00;;;;;;5001799;28;20224;-91
2022/03/08 05:50:37;;;;;;;25.30;15.30;;;-0.50;99.10;;;;;;5013751;28;20724;-91
2022/03/08 05:53:05;;;;;;;23.65;15.27;;;-0.40;99.30;;;;;;5002549;28;20704;-91
2022/03/08 05:55:32;;;;;;;24.67;15.43;;;-0.70;99.60;;;;;;5013567;28;20262;-91
2022/03/08 05:57:59;;;;;;;21.88;13.38;;;-0.50;99.70;;;;;;5017377;28;20212;-91
2022/03/08 06:00:27;;;;;;;29.80;15.77;;;-0.50;99.80;;;;;;5017724;28;20198;-93
2022/03/08 06:02:54;;;;;;;23.15;13.57;;;-0.80;99.60;;;;;;5015353;28;20586;-91
2022/03/08 06:05:23;;;;;;;21.65;13.73;;;-0.50;99.90;;;;;;5006756;28;20218;-91
2022/03/08 06:07:51;;;;;;;24.02;13.80;;;-0.40;99.90;;;;;;5009852;28;20219;-91
2022/03/08 06:10:26;;;;;;;19.27;13.00;;;-0.50;99.80;;;;;;5018099;28;20259;-91
2022/03/08 06:12:53;;;;;;;22.05;14.25;;;-0.50;99.70;;;;;;5005091;28;20215;-91
2022/03/08 06:15:21;;;;;;;22.27;13.63;;;-0.60;99.50;;;;;;4999095;28;20216;-90
2022/03/08 06:17:48;;;;;;;22.45;12.90;;;-0.50;99.50;;;;;;5001116;28;20215;-90
2022/03/08 06:23:13;;;;;;;21.83;13.95;;;-0.40;98.70;;;;;;5211941;22;20262;-89
2022/03/08 06:26:09;;;;;;;20.67;13.00;;;-0.40;98.60;;;;;;5017753;28;20184;-89
2022/03/08 06:28:40;;;;;;;23.00;13.88;;;-0.10;98.70;;;;;;5014555;28;20283;-91
2022/03/08 06:34:09;;;;;;;23.35;13.35;;;-0.30;99.30;;;;;;4995676;28;20218;-89
2022/03/08 06:37:14;;;;;;;20.63;12.55;;;-0.30;99.60;;;;;;4999319;28;20236;-90
2022/03/08 06:45:47;;;;;;;20.05;12.00;;;-0.20;99.30;;;;;;5018782;28;20353;-89
2022/03/08 06:48:33;;;;;;;22.48;14.20;;;-0.30;99.70;;;;;;5023568;28;20231;-89
2022/03/08 06:51:13;;;;;;;23.33;12.73;;;0.00;99.90;;;;;;5002811;28;20242;-89
2022/03/08 06:57:05;;;;;;;18.98;12.35;;;0.00;99.60;;;;;;5011955;28;20282;-90
2022/03/08 07:16:04;;;;;;;23.50;13.63;;;0.60;98.30;;;;;;4989692;28;20184;-91
2022/03/08 07:19:12;;;;;;;53.63;18.02;;;0.60;98.20;;;;;;4978180;28;20213;-89
2022/03/08 07:21:43;;;;;;;22.02;12.50;;;0.60;98.20;;;;;;4985265;28;20221;-90
2022/03/08 07:24:16;;;;;;;29.33;13.98;;;0.90;98.40;;;;;;4999183;28;20226;-88
2022/03/08 07:26:43;;;;;;;32.08;17.30;;;1.00;97.80;;;;;;5033210;28;20200;-90
2022/03/08 07:29:11;;;;;;;21.38;12.30;;;0.90;97.30;;;;;;5023136;28;20242;-88
2022/03/08 07:31:38;;;;;;;46.45;20.90;;;1.10;97.60;;;;;;5019960;28;20234;-89
2022/03/08 07:34:06;;;;;;;27.08;15.15;;;1.40;96.90;;;;;;5034826;28;20246;-91
2022/03/08 07:36:35;;;;;;;37.35;21.60;;;1.30;96.10;;;;;;5032827;28;20218;-90
2022/03/08 07:39:04;;;;;;;28.05;17.40;;;1.50;95.90;;;;;;5023922;28;20206;-88
2022/03/08 07:41:31;;;;;;;21.13;12.98;;;1.60;95.80;;;;;;5017723;28;20311;-88
2022/03/08 07:44:01;;;;;;;21.67;12.95;;;1.90;95.70;;;;;;5018058;28;20208;-90
2022/03/08 07:46:30;;;;;;;28.58;14.65;;;1.70;95.50;;;;;;5017214;28;20659;-89
2022/03/08 07:48:58;;;;;;;16.90;9.93;;;2.10;95.40;;;;;;5017846;28;20714;-90
2022/03/08 07:51:26;;;;;;;34.08;15.05;;;2.50;94.30;;;;;;5034810;28;20257;-91
2022/03/08 07:53:53;;;;;;;24.50;14.18;;;2.70;93.70;;;;;;5019332;28;20669;-90
2022/03/08 07:56:25;;;;;;;18.77;4.00;;;2.80;93.40;;;;;;5018901;28;20232;-91
2022/03/08 07:58:52;;;;;;;13.60;8.50;;;2.90;91.20;;;;;;5027829;28;20205;-91
2022/03/08 08:01:22;;;;;;;16.17;9.45;;;3.30;90.30;;;;;;5026396;28;20276;-89
2022/03/08 08:03:57;;;;;;;31.80;11.10;;;3.10;90.90;;;;;;5022995;28;20214;-90
2022/03/08 08:06:32;;;;;;;10.85;6.90;;;2.90;91.00;;;;;;5021246;28;20188;-90
2022/03/08 08:08:59;;;;;;;12.07;8.02;;;3.40;89.20;;;;;;5019286;28;20252;-90
2022/03/08 08:11:28;;;;;;;11.85;8.52;;;3.30;88.70;;;;;;5020855;28;20256;-89
2022/03/08 08:13:59;;;;;;;10.40;7.28;;;3.40;88.10;;;;;;5020365;28;20581;-89
2022/03/08 08:16:26;;;;;;;13.65;7.85;;;3.50;87.80;;;;;;5035220;28;20225;-89
2022/03/08 08:18:53;;;;;;;11.20;7.18;;;3.50;87.30;;;;;;5032829;28;20217;-90
2022/03/08 08:21:20;;;;;;;7.05;4.53;;;3.60;87.40;;;;;;5031382;28;20324;-88
2022/03/08 08:23:53;;;;;;;12.50;8.00;;;3.40;86.50;;;;;;5034620;28;20201;-90
2022/03/08 08:26:21;;;;;;;15.32;8.05;;;3.70;86.70;;;;;;5027998;28;20229;-90
2022/03/08 08:28:51;;;;;;;11.95;8.00;;;3.80;86.40;;;;;;5018377;28;20233;-89
2022/03/08 08:31:18;;;;;;;12.30;7.78;;;4.10;86.40;;;;;;5025883;28;20228;-89
2022/03/08 08:33:46;;;;;;;11.40;9.40;;;4.10;86.50;;;;;;5022225;28;20210;-90
2022/03/08 08:36:14;;;;;;;9.45;6.40;;;3.90;85.10;;;;;;5021266;28;20255;-90
2022/03/08 08:38:41;;;;;;;14.45;8.13;;;4.00;85.10;;;;;;5020192;28;20211;-89
2022/03/08 08:41:10;;;;;;;16.50;9.35;;;4.10;85.50;;;;;;5022524;28;20234;-90
2022/03/08 08:43:37;;;;;;;12.13;8.05;;;4.10;85.20;;;;;;5028122;28;20223;-90
2022/03/08 08:46:08;;;;;;;13.60;8.32;;;4.10;84.70;;;;;;5027821;28;20215;-90
2022/03/08 08:48:35;;;;;;;9.57;6.10;;;4.10;84.00;;;;;;5031717;28;20226;-88
2022/03/08 08:51:03;;;;;;;23.73;9.40;;;4.40;84.40;;;;;;5029285;28;20261;-88
2022/03/08 08:53:31;;;;;;;11.07;7.43;;;4.40;82.90;;;;;;5030826;28;20201;-88
2022/03/08 08:55:58;;;;;;;13.07;9.57;;;4.00;82.00;;;;;;5035721;28;20670;-89
2022/03/08 08:58:26;;;;;;;12.60;8.35;;;4.60;82.30;;;;;;5032001;28;20194;-88
2022/03/08 09:00:54;;;;;;;10.23;5.18;;;4.60;82.30;;;;;;5037926;28;20224;-88
2022/03/08 09:03:24;;;;;;;10.20;4.57;;;4.90;82.00;;;;;;5039565;28;20234;-89
2022/03/08 09:05:53;;;;;;;10.32;6.40;;;4.50;80.60;;;;;;5039075;28;20229;-90
2022/03/08 09:08:24;;;;;;;10.63;8.18;;;4.90;80.50;;;;;;5036068;28;20214;-88
2022/03/08 09:10:54;;;;;;;10.63;6.15;;;5.00;80.00;;;;;;5025164;28;20334;-89
2022/03/08 09:13:29;;;;;;;11.77;6.55;;;4.90;80.90;;;;;;5029370;28;20218;-90
2022/03/08 09:15:58;;;;;;;13.45;6.00;;;5.00;79.20;;;;;;5027773;28;20269;-89
2022/03/08 09:18:27;;;;;;;11.10;7.60;;;5.00;78.20;;;;;;5028762;28;20230;-89
2022/03/08 09:21:01;;;;;;;18.17;7.32;;;5.00;78.40;;;;;;5027422;28;20222;-89
2022/03/08 09:23:29;;;;;;;9.57;6.70;;;5.00;78.30;;;;;;5026858;28;20192;-89
2022/03/08 09:25:57;;;;;;;13.68;7.07;;;5.40;77.90;;;;;;5033230;28;20243;-89
2022/03/08 09:28:26;;;;;;;7.53;5.35;;;5.30;76.80;;;;;;5030200;28;20282;-89
2022/03/08 10:00:31;;;;;;;8.63;7.05;;;6.20;72.60;;;;;;5033629;28;20210;-89
2022/03/08 10:10:07;;;;;;;11.95;7.32;;;6.20;69.10;;;;;;4924122;29;20317;-89
2022/03/08 10:16:43;;;;;;;9.05;5.90;;;6.20;67.30;;;;;;4904171;29;20225;-91
2022/03/08 10:23:28;;;;;;;10.20;6.28;;;6.40;67.00;;;;;;4870500;29;20554;-89
2022/03/08 10:40:28;;;;;;;8.27;6.03;;;6.50;63.20;;;;;;4970370;28;20204;-90
2022/03/08 10:54:02;;;;;;;7.85;4.55;;;6.40;61.50;;;;;;4883676;29;20258;-89
2022/03/08 10:56:48;;;;;;;9.23;6.72;;;6.90;60.10;;;;;;4905019;29;20208;-89
2022/03/08 10:59:42;;;;;;;8.10;5.30;;;7.00;59.90;;;;;;4913717;29;20208;-91
2022/03/08 11:05:30;;;;;;;9.57;6.13;;;7.10;60.20;;;;;;4982123;28;20235;-89
2022/03/08 11:07:58;;;;;;;7.93;4.80;;;7.30;60.00;;;;;;5004625;28;20235;-89
2022/03/08 11:10:31;;;;;;;8.13;5.18;;;7.30;59.40;;;;;;5001796;28;20615;-90
2022/03/08 11:13:36;;;;;;;8.55;4.00;;;7.20;58.50;;;;;;5004881;28;20239;-88
2022/03/08 11:16:10;;;;;;;9.38;5.50;;;7.20;58.50;;;;;;4961514;28;20211;-89
2022/03/08 11:21:33;;;;;;;24.55;10.95;;;7.20;58.00;;;;;;5008369;28;20250;-89
2022/03/08 11:31:25;;;;;;;8.02;5.20;;;7.40;57.60;;;;;;4960317;28;20698;-88
2022/03/08 11:34:27;;;;;;;6.82;5.00;;;7.40;57.30;;;;;;4975600;28;20213;-89
2022/03/08 11:37:03;;;;;;;7.75;4.80;;;7.10;56.60;;;;;;4980893;28;20235;-89
2022/03/08 11:39:40;;;;;;;8.55;5.50;;;7.20;56.30;;;;;;4988721;28;20212;-88
2022/03/08 11:42:28;;;;;;;13.32;6.28;;;7.60;56.90;;;;;;4985899;28;20342;-89
2022/03/08 11:44:59;;;;;;;6.63;4.88;;;7.70;56.40;;;;;;4986375;28;20213;-88
2022/03/08 11:47:38;;;;;;;7.72;4.50;;;7.80;56.00;;;;;;4991853;28;20228;-89
2022/03/08 11:50:38;;;;;;;8.80;4.57;;;7.90;55.50;;;;;;4990882;28;20230;-89
2022/03/08 11:53:47;;;;;;;;;;;;;;;;;;;;;
2022/03/08 12:12:35;;;;;;;7.33;4.70;;;8.20;53.70;;;;;;5137802;22;20491;-90
2022/03/08 12:15:21;;;;;;;7.90;5.90;;;8.20;53.80;;;;;;5006317;28;20463;-90
2022/03/08 12:27:20;;;;;;;16.43;7.60;;;8.30;53.70;;;;;;3189438;26;21076;-91
2022/03/08 12:46:50;;;;;;;9.97;7.60;;;8.60;54.00;;;;;;5099824;27;2043709;-90
2022/03/08 13:15:28;;;;;;;12.80;7.40;;;8.90;53.20;;;;;;5011394;28;20488;-91
2022/03/08 13:18:21;;;;;;;18.17;10.40;;;9.00;53.80;;;;;;5018483;28;20589;-90
2022/03/08 13:24:14;;;;;;;10.27;6.70;;;9.20;53.20;;;;;;5010747;28;20453;-89
2022/03/08 13:26:50;;;;;;;12.00;7.67;;;9.20;52.70;;;;;;5018760;28;20442;-88
2022/03/08 13:29:41;;;;;;;11.70;7.73;;;9.20;51.50;;;;;;5026966;28;20478;-88
2022/03/08 13:35:39;;;;;;;19.87;11.60;;;9.40;50.30;;;;;;4996535;28;20486;-88
2022/03/08 13:38:10;;;;;;;23.27;12.17;;;9.30;50.10;;;;;;5021018;28;20427;-89
2022/03/08 13:41:28;;;;;;;28.83;12.53;;;9.30;50.10;;;;;;5019036;28;20462;-90
2022/03/08 13:44:04;;;;;;;8.80;5.50;;;9.30;50.20;;;;;;5012981;28;20509;-90
2022/03/08 13:46:36;;;;;;;14.57;5.90;;;9.30;49.50;;;;;;5012614;28;20447;-90
2022/03/08 13:49:18;;;;;;;9.37;6.30;;;9.30;49.50;;;;;;5006502;28;20462;-89
2022/03/08 13:51:47;;;;;;;7.80;6.10;;;9.40;49.80;;;;;;5007885;28;20485;-90
2022/03/08 13:54:17;;;;;;;13.70;7.20;;;9.50;50.30;;;;;;5016653;28;20443;-89
2022/03/08 13:57:12;;;;;;;10.67;7.20;;;9.40;50.60;;;;;;5019194;28;20470;-89
2022/03/08 13:59:51;;;;;;;33.07;17.63;;;9.40;50.60;;;;;;5010634;28;20483;-90
2022/03/08 14:02:25;;;;;;;14.43;8.33;;;9.50;50.20;;;;;;5109712;23;20503;-90
2022/03/08 14:04:54;;;;;;;12.20;6.63;;;9.60;49.80;;;;;;5003793;28;20826;-89
2022/03/08 14:07:21;;;;;;;13.10;6.87;;;9.70;49.00;;;;;;5003672;28;20456;-91
2022/03/08 14:10:01;;;;;;;8.53;5.90;;;9.80;48.80;;;;;;5013756;28;20428;-90
2022/03/08 14:16:14;;;;;;;15.10;6.43;;;9.60;49.00;;;;;;5000057;28;20482;-89
2022/03/08 14:18:56;;;;;;;8.70;6.40;;;9.60;49.90;;;;;;5007808;28;20488;-89
2022/03/08 14:24:26;;;;;;;9.47;6.63;;;9.60;48.90;;;;;;4283382;23;20549;-90
2022/03/08 14:27:29;;;;;;;7.03;4.67;;;9.50;48.90;;;;;;5018537;28;20455;-90
2022/03/08 14:44:18;;;;;;;9.60;6.60;;;9.80;48.50;;;;;;4818678;29;20489;-85
2022/03/08 14:46:45;;;;;;;9.77;6.17;;;9.70;48.80;;;;;;4870711;28;20488;-87
2022/03/08 14:51:54;;;;;;;11.27;7.37;;;9.70;49.00;;;;;;5005288;28;20547;-88
2022/03/08 14:54:21;;;;;;;10.50;7.73;;;9.60;49.10;;;;;;5005825;28;20983;-88
2022/03/08 15:00:26;;;;;;;47.67;12.50;;;9.60;50.60;;;;;;5009016;28;20810;-89
2022/03/08 15:08:37;;;;;;;18.53;9.03;;;9.80;50.40;;;;;;5006944;28;20443;-87
2022/03/08 15:13:48;;;;;;;10.30;6.30;;;10.00;49.20;;;;;;5094242;23;20483;-86
2022/03/08 15:16:51;;;;;;;10.00;7.00;;;10.00;48.50;;;;;;5007207;28;20486;-87
2022/03/08 15:19:18;;;;;;;9.27;5.90;;;9.70;49.20;;;;;;5012741;28;20910;-87
2022/03/08 15:22:01;;;;;;;;;;;;;;;;;;;;;
2022/03/08 15:24:37;;;;;;;7.17;5.50;;;9.60;49.40;;;;;;5005608;28;20435;-90
2022/03/08 15:28:10;;;;;;;9.20;4.77;;;9.80;49.30;;;;;;5009280;28;20439;-91
2022/03/08 15:30:52;;;;;;;7.93;5.50;;;9.70;48.20;;;;;;4957799;28;20481;-91
2022/03/08 15:40:45;;;;;;;11.80;5.03;;;9.70;47.30;;;;;;4949711;29;20525;-91
2022/03/08 15:43:13;;;;;;;7.93;4.90;;;9.60;47.10;;;;;;4951060;29;20505;-90
2022/03/08 15:49:18;;;;;;;7.60;5.50;;;9.50;48.80;;;;;;5005429;28;20444;-91
2022/03/08 15:54:39;;;;;;;8.87;5.30;;;9.50;47.50;;;;;;5004025;28;20463;-90
2022/03/08 15:57:33;;;;;;;7.30;5.23;;;9.60;47.30;;;;;;5004910;28;20448;-90
2022/03/08 16:00:21;;;;;;;7.50;4.97;;;9.50;47.80;;;;;;4969607;28;20460;-91
2022/03/08 16:03:01;;;;;;;7.73;4.93;;;9.50;47.40;;;;;;5005624;28;20471;-89
2022/03/08 16:06:23;;;;;;;10.83;6.20;;;9.60;47.70;;;;;;5006771;28;20913;-91
2022/03/08 16:12:22;;;;;;;12.43;5.97;;;9.40;47.30;;;;;;4906309;29;21014;-90
2022/03/08 16:18:49;;;;;;;6.73;5.00;;;9.30;47.40;;;;;;4953348;28;20443;-92
2022/03/08 16:23:54;;;;;;;13.30;5.77;;;9.10;47.70;;;;;;5015807;28;20477;-90
2022/03/08 16:26:21;;;;;;;8.47;5.73;;;9.10;48.10;;;;;;5013026;23;20499;-86
2022/03/08 16:28:48;;;;;;;8.63;5.63;;;9.10;48.10;;;;;;4986422;28;20459;-87
2022/03/08 16:31:17;;;;;;;12.67;6.97;;;9.00;47.70;;;;;;4986068;28;20474;-88
2022/03/08 16:33:44;;;;;;;7.40;5.77;;;9.10;48.50;;;;;;4983949;28;20475;-89
2022/03/08 16:36:11;;;;;;;8.97;5.53;;;9.00;48.10;;;;;;4983166;28;20506;-88
2022/03/08 16:38:41;;;;;;;8.57;5.40;;;9.00;47.90;;;;;;4992787;28;20463;-88
2022/03/08 16:41:09;;;;;;;10.30;5.20;;;9.00;47.90;;;;;;4985380;28;20463;-87
2022/03/08 16:43:36;;;;;;;8.13;5.83;;;9.00;48.20;;;;;;4982816;28;20490;-87
2022/03/08 16:46:03;;;;;;;9.93;5.83;;;8.90;48.00;;;;;;4983134;28;20903;-87
2022/03/08 16:48:32;;;;;;;8.00;5.23;;;9.00;48.40;;;;;;4984001;28;20452;-87
2022/03/08 16:50:59;;;;;;;10.27;5.60;;;9.20;48.00;;;;;;4983423;28;20461;-87
2022/03/08 16:53:26;;;;;;;6.60;4.77;;;9.20;47.80;;;;;;4984983;28;20456;-86
2022/03/08 16:55:53;;;;;;;10.33;5.63;;;8.90;48.20;;;;;;4984867;28;20509;-88
2022/03/08 16:58:21;;;;;;;7.50;5.57;;;8.90;47.80;;;;;;4985317;28;20997;-87
2022/03/08 17:00:48;;;;;;;11.37;6.47;;;8.90;48.00;;;;;;4991566;28;20472;-87
2022/03/08 17:03:15;;;;;;;10.18;6.05;;;8.90;48.40;;;;;;4992835;28;20415;-87
2022/03/08 17:05:43;;;;;;;8.37;5.67;;;8.80;48.40;;;;;;4991135;28;20220;-87
2022/03/08 17:08:10;;;;;;;12.20;6.50;;;8.80;49.10;;;;;;4988802;28;20448;-88
2022/03/08 17:10:37;;;;;;;9.85;6.82;;;8.80;48.70;;;;;;4985415;28;20475;-88
2022/03/08 17:13:04;;;;;;;10.50;5.67;;;8.70;48.90;;;;;;4985746;28;20209;-88
2022/03/08 17:15:31;;;;;;;8.70;6.03;;;8.60;49.00;;;;;;4992390;28;20538;-87
2022/03/08 17:17:58;;;;;;;12.63;6.47;;;8.60;49.10;;;;;;4990432;28;20277;-87